sensor_id;sensor_type;location;lat;lon;timestamp;P1;durP1;ratioP1;P2;durP2;ratioP2
23555;SDS011;11956;53.184;8.578;2023-02-26T00:01:33;9.23;;;3.22;;
23555;SDS011;11956;53.184;8.578;2023-02-26T00:04:34;7.30;;;1.83;;
23555;SDS011;11956;53.184;8.578;2023-02-26T00:07:35;4.97;;;1.90;;
23555;SDS011;11956;53.184;8.578;2023-02-26T00:10:36;7.35;;;2.45;;
23555;SDS011;11956;53.184;8.578;2023-02-26T00:13:39;9.50;;;3.50;;
23555;SDS011;11956;53.184;8.578;2023-02-26T00:16:42;14.90;;;5.22;;
23555;SDS011;11956;53.184;8.578;2023-02-26T00:20:08;14.35;;;4.85;;
23555;SDS011;11956;53.184;8.578;2023-02-26T00:23:11;14.55;;;4.97;;
23555;SDS011;11956;53.184;8.578;2023-02-26T00:26:16;14.10;;;5.38;;
23555;SDS011;11956;53.184;8.578;2023-02-26T00:29:17;7.95;;;2.95;;
23555;SDS011;11956;53.184;8.578;2023-02-26T00:32:19;7.03;;;2.95;;
23555;SDS011;11956;53.184;8.578;2023-02-26T00:35:20;4.20;;;2.35;;
23555;SDS011;11956;53.184;8.578;2023-02-26T00:38:22;5.07;;;1.83;;
23555;SDS011;11956;53.184;8.578;2023-02-26T00:41:24;6.60;;;1.85;;
23555;SDS011;11956;53.184;8.578;2023-02-26T00:44:25;4.07;;;1.25;;
23555;SDS011;11956;53.184;8.578;2023-02-26T00:50:54;6.72;;;1.92;;
23555;SDS011;11956;53.184;8.578;2023-02-26T00:57:24;4.55;;;1.20;;
23555;SDS011;11956;53.184;8.578;2023-02-26T01:00:25;3.70;;;0.80;;
23555;SDS011;11956;53.184;8.578;2023-02-26T01:03:26;6.13;;;1.23;;
23555;SDS011;11956;53.184;8.578;2023-02-26T01:06:29;4.10;;;0.93;;
23555;SDS011;11956;53.184;8.578;2023-02-26T01:09:34;3.30;;;1.15;;
23555;SDS011;11956;53.184;8.578;2023-02-26T01:12:37;3.42;;;1.05;;
23555;SDS011;11956;53.184;8.578;2023-02-26T01:15:39;4.35;;;1.05;;
23555;SDS011;11956;53.184;8.578;2023-02-26T01:18:55;4.63;;;1.20;;
23555;SDS011;11956;53.184;8.578;2023-02-26T01:25:52;5.10;;;0.95;;
23555;SDS011;11956;53.184;8.578;2023-02-26T01:28:57;5.38;;;1.10;;
23555;SDS011;11956;53.184;8.578;2023-02-26T01:35:47;5.93;;;1.20;;
23555;SDS011;11956;53.184;8.578;2023-02-26T01:42:29;7.63;;;2.00;;
23555;SDS011;11956;53.184;8.578;2023-02-26T01:45:38;7.65;;;1.63;;
23555;SDS011;11956;53.184;8.578;2023-02-26T01:48:57;6.13;;;1.85;;
23555;SDS011;11956;53.184;8.578;2023-02-26T01:52:03;3.00;;;1.05;;
23555;SDS011;11956;53.184;8.578;2023-02-26T01:55:07;6.85;;;1.33;;
23555;SDS011;11956;53.184;8.578;2023-02-26T01:58:08;5.13;;;1.20;;
23555;SDS011;11956;53.184;8.578;2023-02-26T02:01:09;4.28;;;1.00;;
23555;SDS011;11956;53.184;8.578;2023-02-26T02:04:12;3.83;;;1.20;;
23555;SDS011;11956;53.184;8.578;2023-02-26T02:07:15;2.88;;;1.02;;
23555;SDS011;11956;53.184;8.578;2023-02-26T02:10:17;7.28;;;1.10;;
23555;SDS011;11956;53.184;8.578;2023-02-26T02:17:24;4.90;;;0.98;;
23555;SDS011;11956;53.184;8.578;2023-02-26T02:25:57;2.40;;;0.68;;
23555;SDS011;11956;53.184;8.578;2023-02-26T02:32:24;3.65;;;0.75;;
23555;SDS011;11956;53.184;8.578;2023-02-26T02:35:33;6.18;;;0.88;;
23555;SDS011;11956;53.184;8.578;2023-02-26T02:38:44;2.97;;;0.75;;
23555;SDS011;11956;53.184;8.578;2023-02-26T02:42:22;3.97;;;1.27;;
23555;SDS011;11956;53.184;8.578;2023-02-26T02:45:26;4.22;;;1.95;;
23555;SDS011;11956;53.184;8.578;2023-02-26T02:48:38;3.22;;;0.85;;
23555;SDS011;11956;53.184;8.578;2023-02-26T02:51:51;5.05;;;1.40;;
23555;SDS011;11956;53.184;8.578;2023-02-26T02:55:02;7.10;;;1.50;;
23555;SDS011;11956;53.184;8.578;2023-02-26T02:58:10;5.20;;;1.00;;
23555;SDS011;11956;53.184;8.578;2023-02-26T03:01:17;3.30;;;1.00;;
23555;SDS011;11956;53.184;8.578;2023-02-26T03:04:21;3.80;;;1.15;;
23555;SDS011;11956;53.184;8.578;2023-02-26T03:07:23;4.82;;;1.55;;
23555;SDS011;11956;53.184;8.578;2023-02-26T03:10:25;5.50;;;1.08;;
23555;SDS011;11956;53.184;8.578;2023-02-26T03:13:27;4.28;;;1.27;;
23555;SDS011;11956;53.184;8.578;2023-02-26T03:23:34;9.38;;;1.10;;
23555;SDS011;11956;53.184;8.578;2023-02-26T03:27:09;4.05;;;0.90;;
23555;SDS011;11956;53.184;8.578;2023-02-26T03:30:40;7.20;;;1.15;;
23555;SDS011;11956;53.184;8.578;2023-02-26T03:34:34;6.90;;;1.00;;
23555;SDS011;11956;53.184;8.578;2023-02-26T03:37:22;3.95;;;1.10;;
23555;SDS011;11956;53.184;8.578;2023-02-26T03:40:35;4.75;;;1.00;;
23555;SDS011;11956;53.184;8.578;2023-02-26T03:47:04;6.05;;;1.42;;
23555;SDS011;11956;53.184;8.578;2023-02-26T03:50:12;5.55;;;0.70;;
23555;SDS011;11956;53.184;8.578;2023-02-26T03:53:43;5.00;;;0.88;;
23555;SDS011;11956;53.184;8.578;2023-02-26T03:56:59;3.58;;;0.82;;
23555;SDS011;11956;53.184;8.578;2023-02-26T04:00:24;3.03;;;0.82;;
23555;SDS011;11956;53.184;8.578;2023-02-26T04:03:31;3.00;;;0.75;;
23555;SDS011;11956;53.184;8.578;2023-02-26T04:06:39;5.32;;;0.88;;
23555;SDS011;11956;53.184;8.578;2023-02-26T04:09:42;4.93;;;0.70;;
23555;SDS011;11956;53.184;8.578;2023-02-26T04:12:47;5.82;;;0.93;;
23555;SDS011;11956;53.184;8.578;2023-02-26T04:15:48;6.38;;;0.60;;
23555;SDS011;11956;53.184;8.578;2023-02-26T04:18:49;4.60;;;1.00;;
23555;SDS011;11956;53.184;8.578;2023-02-26T04:21:50;4.30;;;0.60;;
23555;SDS011;11956;53.184;8.578;2023-02-26T04:24:51;5.18;;;0.80;;
23555;SDS011;11956;53.184;8.578;2023-02-26T04:27:52;6.50;;;1.05;;
23555;SDS011;11956;53.184;8.578;2023-02-26T04:30:53;5.40;;;0.60;;
23555;SDS011;11956;53.184;8.578;2023-02-26T04:33:54;4.72;;;0.95;;
23555;SDS011;11956;53.184;8.578;2023-02-26T04:36:55;4.70;;;1.05;;
23555;SDS011;11956;53.184;8.578;2023-02-26T04:39:56;3.72;;;0.73;;
23555;SDS011;11956;53.184;8.578;2023-02-26T04:42:57;4.47;;;1.00;;
23555;SDS011;11956;53.184;8.578;2023-02-26T04:46:01;5.40;;;0.77;;
23555;SDS011;11956;53.184;8.578;2023-02-26T04:49:03;4.45;;;0.70;;
23555;SDS011;11956;53.184;8.578;2023-02-26T04:52:04;5.20;;;0.85;;
23555;SDS011;11956;53.184;8.578;2023-02-26T04:55:07;6.00;;;0.80;;
23555;SDS011;11956;53.184;8.578;2023-02-26T04:58:11;5.28;;;1.00;;
23555;SDS011;11956;53.184;8.578;2023-02-26T05:01:11;4.32;;;0.82;;
23555;SDS011;11956;53.184;8.578;2023-02-26T05:04:13;6.00;;;1.55;;
23555;SDS011;11956;53.184;8.578;2023-02-26T05:07:20;5.95;;;0.90;;
23555;SDS011;11956;53.184;8.578;2023-02-26T05:10:23;2.80;;;0.63;;
23555;SDS011;11956;53.184;8.578;2023-02-26T05:13:25;4.95;;;1.00;;
23555;SDS011;11956;53.184;8.578;2023-02-26T05:16:26;1.75;;;0.70;;
23555;SDS011;11956;53.184;8.578;2023-02-26T05:19:28;5.63;;;1.13;;
23555;SDS011;11956;53.184;8.578;2023-02-26T05:22:29;4.45;;;1.02;;
23555;SDS011;11956;53.184;8.578;2023-02-26T05:25:30;3.22;;;0.80;;
23555;SDS011;11956;53.184;8.578;2023-02-26T05:28:31;4.03;;;1.08;;
23555;SDS011;11956;53.184;8.578;2023-02-26T05:31:33;2.78;;;0.77;;
23555;SDS011;11956;53.184;8.578;2023-02-26T05:34:33;3.58;;;0.90;;
23555;SDS011;11956;53.184;8.578;2023-02-26T05:37:35;7.80;;;2.28;;
23555;SDS011;11956;53.184;8.578;2023-02-26T05:40:36;4.63;;;0.90;;
23555;SDS011;11956;53.184;8.578;2023-02-26T05:43:37;5.20;;;0.90;;
23555;SDS011;11956;53.184;8.578;2023-02-26T05:46:38;5.05;;;1.15;;
23555;SDS011;11956;53.184;8.578;2023-02-26T05:49:39;5.82;;;1.20;;
23555;SDS011;11956;53.184;8.578;2023-02-26T05:52:40;2.35;;;1.10;;
23555;SDS011;11956;53.184;8.578;2023-02-26T05:55:41;3.45;;;0.82;;
23555;SDS011;11956;53.184;8.578;2023-02-26T05:58:42;5.45;;;1.00;;
23555;SDS011;11956;53.184;8.578;2023-02-26T06:01:42;4.18;;;1.30;;
23555;SDS011;11956;53.184;8.578;2023-02-26T06:04:43;3.65;;;1.08;;
23555;SDS011;11956;53.184;8.578;2023-02-26T06:07:45;3.40;;;1.08;;
23555;SDS011;11956;53.184;8.578;2023-02-26T06:10:46;7.72;;;1.50;;
23555;SDS011;11956;53.184;8.578;2023-02-26T06:13:49;7.97;;;1.20;;
23555;SDS011;11956;53.184;8.578;2023-02-26T06:16:50;5.78;;;1.00;;
23555;SDS011;11956;53.184;8.578;2023-02-26T06:19:51;3.20;;;1.23;;
23555;SDS011;11956;53.184;8.578;2023-02-26T06:22:52;7.15;;;1.48;;
23555;SDS011;11956;53.184;8.578;2023-02-26T06:25:54;5.55;;;1.80;;
23555;SDS011;11956;53.184;8.578;2023-02-26T06:28:55;5.32;;;1.70;;
23555;SDS011;11956;53.184;8.578;2023-02-26T06:31:57;5.05;;;1.20;;
23555;SDS011;11956;53.184;8.578;2023-02-26T06:34:58;6.38;;;1.63;;
23555;SDS011;11956;53.184;8.578;2023-02-26T06:37:59;4.85;;;1.67;;
23555;SDS011;11956;53.184;8.578;2023-02-26T06:41:00;5.35;;;1.70;;
23555;SDS011;11956;53.184;8.578;2023-02-26T06:44:00;6.05;;;1.98;;
23555;SDS011;11956;53.184;8.578;2023-02-26T06:47:01;7.40;;;2.00;;
23555;SDS011;11956;53.184;8.578;2023-02-26T06:50:02;10.77;;;3.08;;
23555;SDS011;11956;53.184;8.578;2023-02-26T06:53:04;8.98;;;2.90;;
23555;SDS011;11956;53.184;8.578;2023-02-26T06:56:05;8.85;;;2.85;;
23555;SDS011;11956;53.184;8.578;2023-02-26T06:59:06;9.73;;;2.90;;
23555;SDS011;11956;53.184;8.578;2023-02-26T07:02:10;8.43;;;2.35;;
23555;SDS011;11956;53.184;8.578;2023-02-26T07:05:16;7.32;;;1.73;;
23555;SDS011;11956;53.184;8.578;2023-02-26T07:08:17;3.75;;;1.40;;
23555;SDS011;11956;53.184;8.578;2023-02-26T07:11:18;5.32;;;1.33;;
23555;SDS011;11956;53.184;8.578;2023-02-26T07:14:19;3.72;;;1.58;;
23555;SDS011;11956;53.184;8.578;2023-02-26T07:17:20;5.10;;;1.50;;
23555;SDS011;11956;53.184;8.578;2023-02-26T07:20:21;5.85;;;1.90;;
23555;SDS011;11956;53.184;8.578;2023-02-26T07:23:22;5.07;;;1.88;;
23555;SDS011;11956;53.184;8.578;2023-02-26T07:26:23;3.58;;;1.70;;
23555;SDS011;11956;53.184;8.578;2023-02-26T07:29:24;4.97;;;1.65;;
23555;SDS011;11956;53.184;8.578;2023-02-26T07:32:25;3.30;;;1.30;;
23555;SDS011;11956;53.184;8.578;2023-02-26T07:35:26;4.75;;;1.85;;
23555;SDS011;11956;53.184;8.578;2023-02-26T07:38:27;5.97;;;1.60;;
23555;SDS011;11956;53.184;8.578;2023-02-26T07:41:27;5.65;;;1.48;;
23555;SDS011;11956;53.184;8.578;2023-02-26T07:44:28;3.97;;;1.58;;
23555;SDS011;11956;53.184;8.578;2023-02-26T07:47:29;4.40;;;1.70;;
23555;SDS011;11956;53.184;8.578;2023-02-26T07:50:30;4.63;;;1.80;;
23555;SDS011;11956;53.184;8.578;2023-02-26T07:53:32;6.78;;;2.05;;
23555;SDS011;11956;53.184;8.578;2023-02-26T07:56:34;5.82;;;1.80;;
23555;SDS011;11956;53.184;8.578;2023-02-26T07:59:34;3.30;;;1.70;;
23555;SDS011;11956;53.184;8.578;2023-02-26T08:02:36;3.17;;;1.35;;
23555;SDS011;11956;53.184;8.578;2023-02-26T08:05:37;5.40;;;2.08;;
23555;SDS011;11956;53.184;8.578;2023-02-26T08:08:38;6.00;;;2.08;;
23555;SDS011;11956;53.184;8.578;2023-02-26T08:11:39;4.72;;;1.80;;
23555;SDS011;11956;53.184;8.578;2023-02-26T08:14:42;4.50;;;2.13;;
23555;SDS011;11956;53.184;8.578;2023-02-26T08:17:43;2.35;;;1.30;;
23555;SDS011;11956;53.184;8.578;2023-02-26T08:20:45;4.55;;;1.65;;
23555;SDS011;11956;53.184;8.578;2023-02-26T08:23:46;2.30;;;1.23;;
23555;SDS011;11956;53.184;8.578;2023-02-26T08:26:48;3.00;;;1.42;;
23555;SDS011;11956;53.184;8.578;2023-02-26T08:29:48;3.63;;;1.23;;
23555;SDS011;11956;53.184;8.578;2023-02-26T08:32:49;3.38;;;1.25;;
23555;SDS011;11956;53.184;8.578;2023-02-26T08:35:50;3.72;;;1.20;;
23555;SDS011;11956;53.184;8.578;2023-02-26T08:38:52;5.00;;;1.10;;
23555;SDS011;11956;53.184;8.578;2023-02-26T08:41:53;4.03;;;1.60;;
23555;SDS011;11956;53.184;8.578;2023-02-26T08:44:54;2.03;;;0.80;;
23555;SDS011;11956;53.184;8.578;2023-02-26T08:47:55;2.33;;;1.00;;
23555;SDS011;11956;53.184;8.578;2023-02-26T08:50:56;3.60;;;1.23;;
23555;SDS011;11956;53.184;8.578;2023-02-26T08:53:56;4.05;;;1.20;;
23555;SDS011;11956;53.184;8.578;2023-02-26T08:56:57;2.05;;;1.00;;
23555;SDS011;11956;53.184;8.578;2023-02-26T08:59:59;4.05;;;1.58;;
23555;SDS011;11956;53.184;8.578;2023-02-26T09:03:00;2.55;;;1.10;;
23555;SDS011;11956;53.184;8.578;2023-02-26T09:06:01;2.35;;;1.00;;
23555;SDS011;11956;53.184;8.578;2023-02-26T09:09:04;2.67;;;1.08;;
23555;SDS011;11956;53.184;8.578;2023-02-26T09:12:05;3.13;;;0.98;;
23555;SDS011;11956;53.184;8.578;2023-02-26T09:15:07;3.92;;;1.15;;
23555;SDS011;11956;53.184;8.578;2023-02-26T09:18:10;3.72;;;0.90;;
23555;SDS011;11956;53.184;8.578;2023-02-26T09:21:14;2.53;;;0.80;;
23555;SDS011;11956;53.184;8.578;2023-02-26T09:24:16;4.22;;;0.60;;
23555;SDS011;11956;53.184;8.578;2023-02-26T09:27:17;2.50;;;0.73;;
23555;SDS011;11956;53.184;8.578;2023-02-26T09:30:18;1.77;;;0.73;;
23555;SDS011;11956;53.184;8.578;2023-02-26T09:33:19;3.20;;;0.90;;
23555;SDS011;11956;53.184;8.578;2023-02-26T09:36:20;2.13;;;0.70;;
23555;SDS011;11956;53.184;8.578;2023-02-26T09:39:21;1.80;;;0.50;;
23555;SDS011;11956;53.184;8.578;2023-02-26T09:42:33;1.90;;;0.73;;
23555;SDS011;11956;53.184;8.578;2023-02-26T09:45:55;2.70;;;0.90;;
23555;SDS011;11956;53.184;8.578;2023-02-26T09:49:11;3.17;;;0.57;;
23555;SDS011;11956;53.184;8.578;2023-02-26T09:55:44;3.03;;;0.80;;
23555;SDS011;11956;53.184;8.578;2023-02-26T09:58:49;2.17;;;0.73;;
23555;SDS011;11956;53.184;8.578;2023-02-26T10:12:59;1.50;;;0.50;;
23555;SDS011;11956;53.184;8.578;2023-02-26T10:16:04;1.67;;;0.50;;
23555;SDS011;11956;53.184;8.578;2023-02-26T10:19:26;2.13;;;0.55;;
23555;SDS011;11956;53.184;8.578;2023-02-26T10:22:38;2.03;;;0.68;;
23555;SDS011;11956;53.184;8.578;2023-02-26T10:25:48;1.05;;;0.38;;
23555;SDS011;11956;53.184;8.578;2023-02-26T10:29:19;2.05;;;0.45;;
23555;SDS011;11956;53.184;8.578;2023-02-26T10:36:29;1.90;;;0.60;;
23555;SDS011;11956;53.184;8.578;2023-02-26T10:46:41;2.40;;;0.50;;
23555;SDS011;11956;53.184;8.578;2023-02-26T10:50:10;1.23;;;0.32;;
23555;SDS011;11956;53.184;8.578;2023-02-26T10:53:14;1.73;;;0.65;;
23555;SDS011;11956;53.184;8.578;2023-02-26T10:56:25;2.08;;;0.43;;
23555;SDS011;11956;53.184;8.578;2023-02-26T10:59:30;3.25;;;0.50;;
23555;SDS011;11956;53.184;8.578;2023-02-26T11:02:36;1.25;;;0.50;;
23555;SDS011;11956;53.184;8.578;2023-02-26T11:05:40;2.72;;;0.60;;
23555;SDS011;11956;53.184;8.578;2023-02-26T11:08:42;2.38;;;0.50;;
23555;SDS011;11956;53.184;8.578;2023-02-26T11:11:52;2.88;;;0.65;;
23555;SDS011;11956;53.184;8.578;2023-02-26T11:14:57;4.15;;;1.20;;
23555;SDS011;11956;53.184;8.578;2023-02-26T11:18:01;3.05;;;0.73;;
23555;SDS011;11956;53.184;8.578;2023-02-26T11:21:03;3.50;;;0.50;;
23555;SDS011;11956;53.184;8.578;2023-02-26T11:24:06;3.03;;;0.70;;
23555;SDS011;11956;53.184;8.578;2023-02-26T11:27:25;2.28;;;0.40;;
23555;SDS011;11956;53.184;8.578;2023-02-26T11:30:48;3.85;;;0.70;;
23555;SDS011;11956;53.184;8.578;2023-02-26T11:33:57;2.63;;;0.73;;
23555;SDS011;11956;53.184;8.578;2023-02-26T11:37:02;2.22;;;0.50;;
23555;SDS011;11956;53.184;8.578;2023-02-26T11:40:05;3.05;;;0.75;;
23555;SDS011;11956;53.184;8.578;2023-02-26T11:43:17;2.05;;;0.60;;
23555;SDS011;11956;53.184;8.578;2023-02-26T11:46:22;3.70;;;0.40;;
23555;SDS011;11956;53.184;8.578;2023-02-26T11:49:25;1.10;;;0.50;;
23555;SDS011;11956;53.184;8.578;2023-02-26T11:52:28;2.70;;;0.70;;
23555;SDS011;11956;53.184;8.578;2023-02-26T11:55:36;1.65;;;0.50;;
23555;SDS011;11956;53.184;8.578;2023-02-26T11:58:44;3.65;;;0.40;;
23555;SDS011;11956;53.184;8.578;2023-02-26T12:01:46;5.18;;;0.60;;
23555;SDS011;11956;53.184;8.578;2023-02-26T12:04:50;4.75;;;0.95;;
23555;SDS011;11956;53.184;8.578;2023-02-26T12:07:54;2.38;;;0.55;;
23555;SDS011;11956;53.184;8.578;2023-02-26T12:11:02;0.70;;;0.35;;
23555;SDS011;11956;53.184;8.578;2023-02-26T12:21:17;3.95;;;0.60;;
23555;SDS011;11956;53.184;8.578;2023-02-26T12:24:38;1.35;;;0.47;;
23555;SDS011;11956;53.184;8.578;2023-02-26T12:35:46;2.20;;;0.60;;
23555;SDS011;11956;53.184;8.578;2023-02-26T12:46:47;3.50;;;0.50;;
23555;SDS011;11956;53.184;8.578;2023-02-26T13:15:07;1.95;;;0.40;;
23555;SDS011;11956;53.184;8.578;2023-02-26T13:21:38;2.80;;;0.40;;
23555;SDS011;11956;53.184;8.578;2023-02-26T13:24:50;1.48;;;0.45;;
23555;SDS011;11956;53.184;8.578;2023-02-26T13:28:00;2.30;;;0.63;;
23555;SDS011;11956;53.184;8.578;2023-02-26T13:31:12;3.45;;;0.60;;
23555;SDS011;11956;53.184;8.578;2023-02-26T13:37:59;2.08;;;0.70;;
23555;SDS011;11956;53.184;8.578;2023-02-26T13:41:18;3.47;;;0.50;;
23555;SDS011;11956;53.184;8.578;2023-02-26T13:54:42;2.60;;;0.40;;
23555;SDS011;11956;53.184;8.578;2023-02-26T13:57:50;2.28;;;0.57;;
23555;SDS011;11956;53.184;8.578;2023-02-26T14:01:07;1.92;;;0.55;;
23555;SDS011;11956;53.184;8.578;2023-02-26T14:10:53;0.40;;;0.20;;
23555;SDS011;11956;53.184;8.578;2023-02-26T14:20:26;2.75;;;0.50;;
23555;SDS011;11956;53.184;8.578;2023-02-26T14:23:35;1.92;;;0.30;;
23555;SDS011;11956;53.184;8.578;2023-02-26T14:26:36;3.40;;;0.47;;
23555;SDS011;11956;53.184;8.578;2023-02-26T14:29:39;2.45;;;0.45;;
23555;SDS011;11956;53.184;8.578;2023-02-26T14:36:04;2.20;;;0.60;;
23555;SDS011;11956;53.184;8.578;2023-02-26T14:39:28;4.72;;;0.85;;
23555;SDS011;11956;53.184;8.578;2023-02-26T14:42:58;4.30;;;0.73;;
23555;SDS011;11956;53.184;8.578;2023-02-26T14:46:07;1.35;;;0.25;;
23555;SDS011;11956;53.184;8.578;2023-02-26T14:49:51;1.70;;;0.60;;
23555;SDS011;11956;53.184;8.578;2023-02-26T15:03:42;3.85;;;0.50;;
23555;SDS011;11956;53.184;8.578;2023-02-26T15:14:22;2.80;;;1.08;;
23555;SDS011;11956;53.184;8.578;2023-02-26T15:17:36;1.88;;;0.80;;
23555;SDS011;11956;53.184;8.578;2023-02-26T15:24:25;3.13;;;0.85;;
23555;SDS011;11956;53.184;8.578;2023-02-26T15:27:29;1.20;;;0.55;;
23555;SDS011;11956;53.184;8.578;2023-02-26T15:30:32;1.42;;;0.68;;
23555;SDS011;11956;53.184;8.578;2023-02-26T15:33:34;5.53;;;0.80;;
23555;SDS011;11956;53.184;8.578;2023-02-26T15:36:38;2.40;;;1.00;;
23555;SDS011;11956;53.184;8.578;2023-02-26T15:39:48;3.03;;;1.60;;
23555;SDS011;11956;53.184;8.578;2023-02-26T15:42:51;4.22;;;0.80;;
23555;SDS011;11956;53.184;8.578;2023-02-26T15:45:55;2.47;;;0.70;;
23555;SDS011;11956;53.184;8.578;2023-02-26T15:49:00;5.57;;;1.73;;
23555;SDS011;11956;53.184;8.578;2023-02-26T15:52:30;5.47;;;3.25;;
23555;SDS011;11956;53.184;8.578;2023-02-26T15:55:34;4.60;;;1.33;;
23555;SDS011;11956;53.184;8.578;2023-02-26T16:01:44;2.85;;;1.30;;
23555;SDS011;11956;53.184;8.578;2023-02-26T16:04:48;4.72;;;1.50;;
23555;SDS011;11956;53.184;8.578;2023-02-26T16:07:49;10.93;;;3.88;;
23555;SDS011;11956;53.184;8.578;2023-02-26T16:10:50;10.68;;;4.43;;
23555;SDS011;11956;53.184;8.578;2023-02-26T16:13:53;5.07;;;2.07;;
23555;SDS011;11956;53.184;8.578;2023-02-26T16:16:54;4.25;;;1.60;;
23555;SDS011;11956;53.184;8.578;2023-02-26T16:19:57;4.18;;;1.63;;
23555;SDS011;11956;53.184;8.578;2023-02-26T16:23:06;3.97;;;1.40;;
23555;SDS011;11956;53.184;8.578;2023-02-26T16:26:19;3.55;;;1.20;;
23555;SDS011;11956;53.184;8.578;2023-02-26T16:29:48;4.70;;;1.58;;
23555;SDS011;11956;53.184;8.578;2023-02-26T16:32:52;3.53;;;1.05;;
23555;SDS011;11956;53.184;8.578;2023-02-26T16:35:56;3.72;;;1.00;;
23555;SDS011;11956;53.184;8.578;2023-02-26T16:42:31;2.20;;;1.20;;
23555;SDS011;11956;53.184;8.578;2023-02-26T16:48:53;3.85;;;1.40;;
23555;SDS011;11956;53.184;8.578;2023-02-26T16:51:59;6.90;;;1.83;;
23555;SDS011;11956;53.184;8.578;2023-02-26T16:55:02;5.75;;;1.73;;
23555;SDS011;11956;53.184;8.578;2023-02-26T16:58:05;2.97;;;1.50;;
23555;SDS011;11956;53.184;8.578;2023-02-26T17:01:15;2.70;;;1.23;;
23555;SDS011;11956;53.184;8.578;2023-02-26T17:04:18;5.07;;;1.80;;
23555;SDS011;11956;53.184;8.578;2023-02-26T17:07:25;3.22;;;1.70;;
23555;SDS011;11956;53.184;8.578;2023-02-26T17:13:34;4.05;;;1.75;;
23555;SDS011;11956;53.184;8.578;2023-02-26T17:16:37;4.88;;;1.90;;
23555;SDS011;11956;53.184;8.578;2023-02-26T17:19:38;4.15;;;1.80;;
23555;SDS011;11956;53.184;8.578;2023-02-26T17:22:39;5.40;;;1.60;;
23555;SDS011;11956;53.184;8.578;2023-02-26T17:28:49;5.68;;;2.10;;
23555;SDS011;11956;53.184;8.578;2023-02-26T17:31:50;4.90;;;2.20;;
23555;SDS011;11956;53.184;8.578;2023-02-26T17:34:52;3.70;;;2.13;;
23555;SDS011;11956;53.184;8.578;2023-02-26T17:37:53;4.05;;;1.73;;
23555;SDS011;11956;53.184;8.578;2023-02-26T17:40:56;7.35;;;2.60;;
23555;SDS011;11956;53.184;8.578;2023-02-26T17:43:57;3.65;;;2.20;;
23555;SDS011;11956;53.184;8.578;2023-02-26T17:46:58;6.47;;;2.72;;
23555;SDS011;11956;53.184;8.578;2023-02-26T17:49:59;3.92;;;2.80;;
23555;SDS011;11956;53.184;8.578;2023-02-26T17:52:59;6.53;;;3.83;;
23555;SDS011;11956;53.184;8.578;2023-02-26T17:56:01;8.63;;;4.28;;
23555;SDS011;11956;53.184;8.578;2023-02-26T17:59:02;9.68;;;5.13;;
23555;SDS011;11956;53.184;8.578;2023-02-26T18:02:13;10.60;;;6.00;;
23555;SDS011;11956;53.184;8.578;2023-02-26T18:05:27;8.18;;;4.75;;
23555;SDS011;11956;53.184;8.578;2023-02-26T18:08:32;11.85;;;5.80;;
23555;SDS011;11956;53.184;8.578;2023-02-26T18:11:34;15.60;;;8.43;;
23555;SDS011;11956;53.184;8.578;2023-02-26T18:14:35;10.32;;;6.30;;
23555;SDS011;11956;53.184;8.578;2023-02-26T18:17:36;7.80;;;5.82;;
23555;SDS011;11956;53.184;8.578;2023-02-26T18:20:37;12.85;;;7.18;;
23555;SDS011;11956;53.184;8.578;2023-02-26T18:23:38;3.50;;;2.05;;
23555;SDS011;11956;53.184;8.578;2023-02-26T18:26:40;10.35;;;5.60;;
23555;SDS011;11956;53.184;8.578;2023-02-26T18:29:41;8.38;;;3.25;;
23555;SDS011;11956;53.184;8.578;2023-02-26T18:32:43;9.32;;;4.80;;
23555;SDS011;11956;53.184;8.578;2023-02-26T18:35:44;6.75;;;3.88;;
23555;SDS011;11956;53.184;8.578;2023-02-26T18:38:50;9.68;;;5.10;;
23555;SDS011;11956;53.184;8.578;2023-02-26T18:41:51;11.73;;;6.10;;
23555;SDS011;11956;53.184;8.578;2023-02-26T18:44:52;12.90;;;6.13;;
23555;SDS011;11956;53.184;8.578;2023-02-26T18:47:53;9.13;;;4.45;;
23555;SDS011;11956;53.184;8.578;2023-02-26T18:50:55;9.82;;;5.30;;
23555;SDS011;11956;53.184;8.578;2023-02-26T18:53:56;9.35;;;5.38;;
23555;SDS011;11956;53.184;8.578;2023-02-26T18:56:57;8.30;;;5.20;;
23555;SDS011;11956;53.184;8.578;2023-02-26T18:59:58;6.50;;;3.90;;
23555;SDS011;11956;53.184;8.578;2023-02-26T19:02:59;8.82;;;4.60;;
23555;SDS011;11956;53.184;8.578;2023-02-26T19:06:01;9.95;;;5.60;;
23555;SDS011;11956;53.184;8.578;2023-02-26T19:09:04;10.52;;;5.75;;
23555;SDS011;11956;53.184;8.578;2023-02-26T19:12:06;19.38;;;10.23;;
23555;SDS011;11956;53.184;8.578;2023-02-26T19:15:07;14.23;;;7.80;;
23555;SDS011;11956;53.184;8.578;2023-02-26T19:18:11;14.07;;;6.40;;
23555;SDS011;11956;53.184;8.578;2023-02-26T19:21:12;10.18;;;5.75;;
23555;SDS011;11956;53.184;8.578;2023-02-26T19:24:14;10.00;;;5.55;;
23555;SDS011;11956;53.184;8.578;2023-02-26T19:27:15;11.55;;;5.32;;
23555;SDS011;11956;53.184;8.578;2023-02-26T19:30:16;6.55;;;4.18;;
23555;SDS011;11956;53.184;8.578;2023-02-26T19:33:18;11.73;;;7.35;;
23555;SDS011;11956;53.184;8.578;2023-02-26T19:36:19;6.72;;;4.25;;
23555;SDS011;11956;53.184;8.578;2023-02-26T19:39:21;9.80;;;4.93;;
23555;SDS011;11956;53.184;8.578;2023-02-26T19:42:22;14.40;;;6.75;;
23555;SDS011;11956;53.184;8.578;2023-02-26T19:45:23;34.40;;;15.68;;
23555;SDS011;11956;53.184;8.578;2023-02-26T19:48:24;29.90;;;13.77;;
23555;SDS011;11956;53.184;8.578;2023-02-26T19:51:26;14.80;;;7.22;;
23555;SDS011;11956;53.184;8.578;2023-02-26T19:54:27;10.20;;;5.78;;
23555;SDS011;11956;53.184;8.578;2023-02-26T19:57:28;15.35;;;7.57;;
23555;SDS011;11956;53.184;8.578;2023-02-26T20:00:29;13.88;;;6.95;;
23555;SDS011;11956;53.184;8.578;2023-02-26T20:03:30;14.43;;;7.72;;
23555;SDS011;11956;53.184;8.578;2023-02-26T20:06:32;17.45;;;8.70;;
23555;SDS011;11956;53.184;8.578;2023-02-26T20:09:33;17.48;;;9.63;;
23555;SDS011;11956;53.184;8.578;2023-02-26T20:12:34;22.58;;;13.57;;
23555;SDS011;11956;53.184;8.578;2023-02-26T20:15:35;19.00;;;8.95;;
23555;SDS011;11956;53.184;8.578;2023-02-26T20:18:36;20.85;;;11.93;;
23555;SDS011;11956;53.184;8.578;2023-02-26T20:21:37;19.45;;;11.75;;
23555;SDS011;11956;53.184;8.578;2023-02-26T20:24:38;13.65;;;7.72;;
23555;SDS011;11956;53.184;8.578;2023-02-26T20:27:39;12.57;;;7.38;;
23555;SDS011;11956;53.184;8.578;2023-02-26T20:30:40;12.57;;;6.88;;
23555;SDS011;11956;53.184;8.578;2023-02-26T20:33:41;10.98;;;7.32;;
23555;SDS011;11956;53.184;8.578;2023-02-26T20:36:42;14.88;;;8.35;;
23555;SDS011;11956;53.184;8.578;2023-02-26T20:39:49;12.90;;;8.32;;
23555;SDS011;11956;53.184;8.578;2023-02-26T20:42:50;12.52;;;7.55;;
23555;SDS011;11956;53.184;8.578;2023-02-26T20:45:51;14.35;;;7.85;;
23555;SDS011;11956;53.184;8.578;2023-02-26T20:48:54;15.20;;;8.70;;
23555;SDS011;11956;53.184;8.578;2023-02-26T20:51:55;16.35;;;10.50;;
23555;SDS011;11956;53.184;8.578;2023-02-26T20:54:56;16.30;;;10.60;;
23555;SDS011;11956;53.184;8.578;2023-02-26T20:57:57;20.92;;;12.80;;
23555;SDS011;11956;53.184;8.578;2023-02-26T21:00:58;18.23;;;9.93;;
23555;SDS011;11956;53.184;8.578;2023-02-26T21:03:59;14.05;;;8.60;;
23555;SDS011;11956;53.184;8.578;2023-02-26T21:07:05;13.25;;;8.32;;
23555;SDS011;11956;53.184;8.578;2023-02-26T21:10:37;13.98;;;8.23;;
23555;SDS011;11956;53.184;8.578;2023-02-26T21:13:40;12.40;;;7.30;;
23555;SDS011;11956;53.184;8.578;2023-02-26T21:16:41;11.32;;;7.05;;
23555;SDS011;11956;53.184;8.578;2023-02-26T21:19:42;17.65;;;8.35;;
23555;SDS011;11956;53.184;8.578;2023-02-26T21:22:43;12.90;;;8.00;;
23555;SDS011;11956;53.184;8.578;2023-02-26T21:25:45;13.63;;;7.93;;
23555;SDS011;11956;53.184;8.578;2023-02-26T21:28:46;15.23;;;8.52;;
23555;SDS011;11956;53.184;8.578;2023-02-26T21:31:50;18.23;;;8.55;;
23555;SDS011;11956;53.184;8.578;2023-02-26T21:34:52;14.85;;;8.10;;
23555;SDS011;11956;53.184;8.578;2023-02-26T21:37:53;10.77;;;6.35;;